createdAt,value
2023-02-14T00:00:02.475Z,84.18
2023-02-14T00:02:29.149Z,84.10
2023-02-14T00:04:55.818Z,83.82
2023-02-14T00:07:22.411Z,83.81
2023-02-14T00:09:49.008Z,83.65
2023-02-14T00:12:15.542Z,83.77
2023-02-14T00:15:00.903Z,84.16
2023-02-14T00:17:27.600Z,84.38
2023-02-14T00:19:54.116Z,84.27
2023-02-14T00:22:20.685Z,84.40
2023-02-14T00:24:47.484Z,83.99
2023-02-14T00:27:14.957Z,84.57
2023-02-14T00:29:41.546Z,84.33
2023-02-14T00:32:08.150Z,84.73
2023-02-14T00:34:36.578Z,84.48
2023-02-14T00:39:47.407Z,84.36
2023-02-14T00:42:14.703Z,84.74
2023-02-14T00:44:41.278Z,84.37
2023-02-14T00:47:07.831Z,84.54
2023-02-14T00:49:34.409Z,84.58
2023-02-14T00:52:01.028Z,84.64
2023-02-14T00:54:27.856Z,84.62
2023-02-14T00:56:54.413Z,84.48
2023-02-14T00:59:21.084Z,84.26
2023-02-14T01:01:47.654Z,84.45
2023-02-14T01:04:14.237Z,84.39
2023-02-14T01:06:40.867Z,84.87
2023-02-14T01:09:08.283Z,84.68
2023-02-14T01:11:34.976Z,84.39
2023-02-14T01:14:01.514Z,84.35
2023-02-14T01:16:30.784Z,84.64
2023-02-14T01:19:00.316Z,84.28
2023-02-14T01:21:32.649Z,84.57
2023-02-14T01:24:02.079Z,84.23
2023-02-14T01:26:29.041Z,84.17
2023-02-14T01:28:56.042Z,84.23
2023-02-14T01:31:26.359Z,84.62
2023-02-14T01:33:53.544Z,84.43
2023-02-14T01:36:24.639Z,84.40
2023-02-14T01:38:53.484Z,84.16
2023-02-14T01:41:20.496Z,84.21
2023-02-14T01:43:56.077Z,84.29
2023-02-14T01:46:23.354Z,84.55
2023-02-14T01:48:51.124Z,84.40
2023-02-14T01:51:20.039Z,84.36
2023-02-14T01:53:47.830Z,84.47
2023-02-14T01:56:21.902Z,84.56
2023-02-14T01:58:52.784Z,84.58
2023-02-14T02:01:19.911Z,84.30
2023-02-14T02:03:54.900Z,84.37
2023-02-14T02:06:54.026Z,84.37
2023-02-14T02:09:28.507Z,84.64
2023-02-14T02:11:55.328Z,84.23
2023-02-14T02:14:23.044Z,84.38
2023-02-14T02:17:07.652Z,84.48
2023-02-14T02:19:34.205Z,84.46
2023-02-14T02:22:28.716Z,84.38
2023-02-14T02:25:11.633Z,83.58
2023-02-14T02:28:04.170Z,84.26
2023-02-14T02:30:45.514Z,84.08
2023-02-14T02:33:20.061Z,83.96
2023-02-14T02:35:57.545Z,83.94
2023-02-14T02:38:38.867Z,83.84
2023-02-14T02:41:31.675Z,83.91
2023-02-14T02:44:04.227Z,83.91
2023-02-14T02:46:50.433Z,83.98
2023-02-14T02:49:42.379Z,83.99
2023-02-14T02:52:38.537Z,84.02
2023-02-14T02:55:13.900Z,83.78
2023-02-14T02:57:43.151Z,83.52
2023-02-14T03:00:13.601Z,83.89
2023-02-14T03:03:03.552Z,83.60
2023-02-14T03:05:30.956Z,83.41
2023-02-14T03:07:57.697Z,83.58
2023-02-14T03:10:27.097Z,83.81
2023-02-14T03:13:18.107Z,83.80
2023-02-14T03:16:13.457Z,83.91
2023-02-14T03:19:23.370Z,83.62
2023-02-14T03:21:54.822Z,83.63
2023-02-14T03:24:30.076Z,83.52
2023-02-14T03:27:02.021Z,83.61
2023-02-14T03:29:45.753Z,83.67
2023-02-14T03:32:39.115Z,83.81
2023-02-14T03:35:16.260Z,83.88
2023-02-14T03:37:57.942Z,83.76
2023-02-14T03:40:34.538Z,83.97
2023-02-14T03:43:07.181Z,84.17
2023-02-14T03:45:39.499Z,84.24
2023-02-14T03:48:11.052Z,84.55
2023-02-14T03:50:40.477Z,84.73
2023-02-14T03:53:10.044Z,84.71
2023-02-14T03:55:44.009Z,84.60
2023-02-14T03:58:17.003Z,84.98
2023-02-14T04:00:47.517Z,84.63
2023-02-14T04:03:18.175Z,84.88
2023-02-14T04:05:52.300Z,84.70
2023-02-14T04:08:26.231Z,84.85
2023-02-14T04:10:53.507Z,84.97
2023-02-14T04:13:21.051Z,85.18
2023-02-14T04:15:47.782Z,85.25
2023-02-14T04:18:33.342Z,85.24
2023-02-14T04:21:00.247Z,85.10
2023-02-14T04:23:27.023Z,85.13
2023-02-14T04:25:53.734Z,85.10
2023-02-14T04:28:20.294Z,85.01
2023-02-14T04:30:46.985Z,85.38
2023-02-14T04:33:13.640Z,85.34
2023-02-14T04:35:40.321Z,85.65
2023-02-14T04:38:07.166Z,85.46
2023-02-14T04:40:33.728Z,85.50
2023-02-14T04:43:01.398Z,85.65
2023-02-14T04:45:28.122Z,85.54
2023-02-14T04:47:54.697Z,85.70
2023-02-14T04:50:23.407Z,85.87
2023-02-14T04:52:50.096Z,85.83
2023-02-14T04:55:16.876Z,85.51
2023-02-14T04:57:43.765Z,85.87
2023-02-14T05:00:11.320Z,85.87
2023-02-14T05:02:38.000Z,85.99
2023-02-14T05:05:04.801Z,85.94
2023-02-14T05:07:31.355Z,85.65
2023-02-14T05:09:58.334Z,85.25
2023-02-14T05:12:24.903Z,84.91
2023-02-14T05:14:51.446Z,85.08
2023-02-14T05:17:18.030Z,84.76
2023-02-14T05:19:45.178Z,84.69
2023-02-14T05:22:11.704Z,84.49
2023-02-14T05:24:38.581Z,84.44
2023-02-14T05:27:05.151Z,84.80
2023-02-14T05:29:31.708Z,84.50
2023-02-14T05:31:58.402Z,84.45
2023-02-14T05:34:25.060Z,84.26
2023-02-14T05:36:51.683Z,84.28
2023-02-14T05:39:18.451Z,84.24
2023-02-14T05:41:44.999Z,84.20
2023-02-14T05:44:11.567Z,84.35
2023-02-14T05:46:38.198Z,84.18
2023-02-14T05:49:04.868Z,84.18
2023-02-14T05:51:31.436Z,83.89
2023-02-14T05:54:00.132Z,84.07
2023-02-14T05:56:27.103Z,84.16
2023-02-14T05:58:53.731Z,84.06
2023-02-14T06:01:20.359Z,84.03
2023-02-14T06:03:46.883Z,83.99
2023-02-14T06:06:13.402Z,83.92
2023-02-14T06:08:39.938Z,85.36
2023-02-14T06:11:06.473Z,88.58
2023-02-14T06:13:33.234Z,88.81
2023-02-14T06:15:59.767Z,86.00
2023-02-14T06:18:28.171Z,80.76
2023-02-14T06:20:55.589Z,78.44
2023-02-14T06:23:22.136Z,77.94
2023-02-14T06:25:48.824Z,77.67
2023-02-14T06:28:15.354Z,77.84
2023-02-14T06:30:42.076Z,78.13
2023-02-14T06:33:08.718Z,78.31
2023-02-14T06:35:35.257Z,79.82
2023-02-14T06:38:01.808Z,80.84
2023-02-14T06:40:28.499Z,78.16
2023-02-14T06:42:55.035Z,77.19
2023-02-14T06:45:21.565Z,77.30
2023-02-14T06:47:48.300Z,77.60
2023-02-14T06:50:14.917Z,77.65
2023-02-14T06:52:42.772Z,78.08
2023-02-14T06:55:09.474Z,78.19
2023-02-14T06:57:36.040Z,78.17
2023-02-14T07:00:02.986Z,78.63
2023-02-14T07:02:29.615Z,78.73
2023-02-14T07:04:56.176Z,78.89
2023-02-14T07:07:22.699Z,78.91
2023-02-14T07:09:49.449Z,79.27
2023-02-14T07:12:16.000Z,79.21
2023-02-14T07:14:42.556Z,79.17
2023-02-14T07:17:09.113Z,79.42
2023-02-14T07:19:35.646Z,79.24
2023-02-14T07:22:02.469Z,79.46
2023-02-14T07:24:29.048Z,79.37
2023-02-14T07:26:55.574Z,79.39
2023-02-14T07:29:22.148Z,79.42
2023-02-14T07:31:49.999Z,79.47
2023-02-14T07:34:16.647Z,79.37
2023-02-14T07:36:44.202Z,79.40
2023-02-14T07:39:11.613Z,79.60
2023-02-14T07:41:38.547Z,79.70
2023-02-14T07:44:05.287Z,79.53
2023-02-14T07:46:31.904Z,79.57
2023-02-14T07:48:58.498Z,79.81
2023-02-14T07:51:25.122Z,79.91
2023-02-14T07:53:51.694Z,80.02
2023-02-14T07:56:18.286Z,80.11
2023-02-14T07:58:45.319Z,80.47
2023-02-14T08:01:11.873Z,80.72
2023-02-14T08:03:38.469Z,80.71
2023-02-14T08:06:05.229Z,80.93
2023-02-14T08:08:32.377Z,81.23
2023-02-14T08:10:59.938Z,81.06
2023-02-14T08:13:26.738Z,81.10
2023-02-14T08:16:06.172Z,81.64
2023-02-14T08:18:39.219Z,81.43
2023-02-14T08:21:09.023Z,81.65
2023-02-14T08:23:36.746Z,81.83
2023-02-14T08:26:04.249Z,81.62
2023-02-14T08:28:32.987Z,82.18
2023-02-14T08:30:59.910Z,82.00
2023-02-14T08:33:26.830Z,82.01
2023-02-14T08:35:53.445Z,82.20
2023-02-14T08:38:20.061Z,82.22
2023-02-14T08:40:47.117Z,82.13
2023-02-14T08:43:14.113Z,82.46
2023-02-14T08:45:41.465Z,82.34
2023-02-14T08:48:10.452Z,82.77
2023-02-14T08:50:38.763Z,82.46
2023-02-14T08:53:10.025Z,82.67
2023-02-14T08:55:37.922Z,82.95
2023-02-14T08:58:05.460Z,82.51
2023-02-14T09:00:32.900Z,82.50
2023-02-14T09:02:59.953Z,82.04
2023-02-14T09:05:27.004Z,82.11
2023-02-14T09:07:56.437Z,82.23
2023-02-14T09:10:24.471Z,82.12
2023-02-14T09:12:51.890Z,82.16
2023-02-14T09:15:18.502Z,82.35
2023-02-14T09:17:45.145Z,81.89
2023-02-14T09:20:13.234Z,82.25
2023-02-14T09:22:39.985Z,82.38
2023-02-14T09:25:06.648Z,82.17
2023-02-14T09:27:33.249Z,82.16
2023-02-14T09:29:59.906Z,81.98
2023-02-14T09:32:27.282Z,82.41
2023-02-14T09:34:53.895Z,82.22
2023-02-14T09:37:20.728Z,82.12
2023-02-14T09:39:47.289Z,82.13
2023-02-14T09:42:17.246Z,82.01
2023-02-14T09:44:48.885Z,82.01
2023-02-14T09:47:36.531Z,82.47
2023-02-14T09:50:06.649Z,82.23
2023-02-14T09:52:33.353Z,82.47
2023-02-14T09:55:02.755Z,82.19
2023-02-14T09:57:29.419Z,82.44
2023-02-14T10:00:16.284Z,82.12
2023-02-14T10:03:15.124Z,81.99
2023-02-14T10:05:54.273Z,82.01
2023-02-14T10:08:42.390Z,81.72
2023-02-14T10:11:15.188Z,81.80
2023-02-14T10:13:41.660Z,81.53
2023-02-14T10:16:21.676Z,80.95
2023-02-14T10:18:59.214Z,81.50
2023-02-14T10:21:31.697Z,80.94
2023-02-14T10:24:06.927Z,80.84
2023-02-14T10:26:38.206Z,79.55
2023-02-14T10:29:13.273Z,79.30
2023-02-14T10:31:50.245Z,79.25
2023-02-14T10:34:27.097Z,78.70
2023-02-14T10:37:19.974Z,78.45
2023-02-14T10:39:59.739Z,77.93
2023-02-14T10:42:36.209Z,77.60
2023-02-14T10:45:18.056Z,77.34
2023-02-14T10:48:03.015Z,77.16
2023-02-14T10:50:47.032Z,76.67
2023-02-14T10:53:35.400Z,76.15
2023-02-14T10:56:13.318Z,75.90
2023-02-14T10:58:41.484Z,75.39
2023-02-14T11:01:16.230Z,75.91
2023-02-14T11:04:04.338Z,75.10
2023-02-14T11:06:31.416Z,74.93
2023-02-14T11:08:58.474Z,74.40
2023-02-14T11:11:38.984Z,74.09
2023-02-14T11:14:30.303Z,73.38
2023-02-14T11:16:59.264Z,72.80
2023-02-14T11:19:29.109Z,73.01
2023-02-14T11:21:58.597Z,71.91
2023-02-14T11:24:26.463Z,72.18
2023-02-14T11:26:56.135Z,72.06
2023-02-14T11:29:27.932Z,71.59
2023-02-14T11:31:55.277Z,70.95
2023-02-14T11:34:27.904Z,70.44
2023-02-14T11:36:54.507Z,70.24
2023-02-14T11:39:34.751Z,70.03
2023-02-14T11:42:04.587Z,70.07
2023-02-14T11:44:33.261Z,69.26
2023-02-14T11:47:25.442Z,69.16
2023-02-14T11:49:58.269Z,68.88
2023-02-14T11:52:29.111Z,68.18
2023-02-14T11:54:57.602Z,68.02
2023-02-14T11:57:42.265Z,67.70
2023-02-14T12:00:17.823Z,67.09
2023-02-14T12:02:49.003Z,67.20
2023-02-14T12:05:17.661Z,66.25
2023-02-14T12:07:50.452Z,66.04
2023-02-14T12:10:26.249Z,65.25
2023-02-14T12:13:25.311Z,65.60
2023-02-14T12:15:57.077Z,65.71
2023-02-14T12:19:00.856Z,65.31
2023-02-14T12:21:33.605Z,65.00
2023-02-14T12:24:17.862Z,65.03
2023-02-14T12:27:00.208Z,64.51
2023-02-14T12:29:40.049Z,64.42
2023-02-14T12:32:26.772Z,64.44
2023-02-14T12:35:27.688Z,64.67
2023-02-14T12:38:12.820Z,64.95
2023-02-14T12:40:54.332Z,64.48
2023-02-14T12:43:32.968Z,64.57
2023-02-14T12:46:21.112Z,64.41
2023-02-14T12:49:12.536Z,64.06
2023-02-14T12:51:50.449Z,64.20
2023-02-14T12:54:27.866Z,63.64
2023-02-14T12:57:09.491Z,63.41
2023-02-14T12:59:42.144Z,62.39
2023-02-14T13:02:33.693Z,63.24
2023-02-14T13:05:18.385Z,63.49
2023-02-14T13:08:03.567Z,63.63
2023-02-14T13:10:55.959Z,63.36
2023-02-14T13:13:28.585Z,62.93
2023-02-14T13:16:00.387Z,62.37
2023-02-14T13:18:51.096Z,62.57
2023-02-14T13:21:23.532Z,62.02
2023-02-14T13:23:55.991Z,61.61
2023-02-14T13:26:29.034Z,61.71
2023-02-14T13:29:02.508Z,60.66
2023-02-14T13:31:30.705Z,59.82
2023-02-14T13:34:03.636Z,60.22
2023-02-14T13:36:31.953Z,59.50
2023-02-14T13:39:00.215Z,59.02
2023-02-14T13:41:28.304Z,58.82
2023-02-14T13:43:56.416Z,58.85
2023-02-14T13:46:32.089Z,57.88
2023-02-14T13:49:18.646Z,56.68
2023-02-14T13:51:46.639Z,55.68
2023-02-14T13:56:59.966Z,52.93
2023-02-14T13:59:35.352Z,52.20
2023-02-14T14:02:29.667Z,51.73
2023-02-14T14:04:56.626Z,50.54
2023-02-14T14:07:30.905Z,49.99
2023-02-14T14:10:02.076Z,49.73
2023-02-14T14:12:28.628Z,48.89
2023-02-14T14:15:07.310Z,47.95
2023-02-14T14:18:12.908Z,47.33
2023-02-14T14:20:47.925Z,46.33
2023-02-14T14:23:33.709Z,45.80
2023-02-14T14:26:01.914Z,45.35
2023-02-14T14:28:31.549Z,44.66
2023-02-14T14:30:58.846Z,44.11
2023-02-14T14:33:30.508Z,44.46
2023-02-14T14:35:59.224Z,43.95
2023-02-14T14:38:26.961Z,44.06
2023-02-14T14:40:54.523Z,43.58
2023-02-14T14:43:33.972Z,43.40
2023-02-14T14:46:02.664Z,42.65
2023-02-14T14:48:32.611Z,42.76
2023-02-14T14:51:00.093Z,41.94
2023-02-14T14:53:42.080Z,42.01
2023-02-14T14:56:24.209Z,42.63
2023-02-14T14:58:51.176Z,42.62
2023-02-14T15:01:33.001Z,40.89
2023-02-14T15:04:19.739Z,40.56
2023-02-14T15:06:47.651Z,40.82
2023-02-14T15:09:24.301Z,40.97
2023-02-14T15:12:11.547Z,40.17
2023-02-14T15:14:43.149Z,41.27
2023-02-14T15:17:21.168Z,40.94
2023-02-14T15:19:51.809Z,41.55
2023-02-14T15:22:19.719Z,41.96
2023-02-14T15:24:47.065Z,42.53
2023-02-14T15:27:23.738Z,43.00
2023-02-14T15:30:02.098Z,43.83
2023-02-14T15:32:32.141Z,45.29
2023-02-14T15:35:01.924Z,46.43
2023-02-14T15:37:29.283Z,46.83
2023-02-14T15:39:57.128Z,48.11
2023-02-14T15:42:29.460Z,48.37
2023-02-14T15:45:33.142Z,49.36
2023-02-14T15:48:06.160Z,50.17
2023-02-14T15:50:35.398Z,51.36
2023-02-14T15:53:25.744Z,51.46
2023-02-14T15:55:52.597Z,52.11
2023-02-14T15:58:26.762Z,53.09
2023-02-14T16:00:54.048Z,53.27
2023-02-14T16:03:27.874Z,53.80
2023-02-14T16:05:54.935Z,54.49
2023-02-14T16:08:35.139Z,54.81
2023-02-14T16:11:08.906Z,55.06
2023-02-14T16:13:37.984Z,55.69
2023-02-14T16:16:09.758Z,56.15
2023-02-14T16:18:40.544Z,56.10
2023-02-14T16:21:19.281Z,56.50
2023-02-14T16:24:06.514Z,57.03
2023-02-14T16:26:35.002Z,56.97
2023-02-14T16:29:05.728Z,57.42
2023-02-14T16:31:33.212Z,57.41
2023-02-14T16:34:00.301Z,58.11
2023-02-14T16:36:30.149Z,58.28
2023-02-14T16:38:57.767Z,58.50
2023-02-14T16:41:29.406Z,59.07
2023-02-14T16:43:56.641Z,59.13
2023-02-14T16:46:28.273Z,59.20
2023-02-14T16:48:55.548Z,59.52
2023-02-14T16:51:34.084Z,59.54
2023-02-14T16:54:05.340Z,59.74
2023-02-14T16:56:34.584Z,60.00
2023-02-14T16:59:01.240Z,60.12
2023-02-14T17:01:28.563Z,60.30
2023-02-14T17:03:55.647Z,60.45
2023-02-14T17:06:27.660Z,60.63
2023-02-14T17:08:55.818Z,60.22
2023-02-14T17:11:24.243Z,61.03
2023-02-14T17:13:51.187Z,61.61
2023-02-14T17:16:18.473Z,61.65
2023-02-14T17:18:48.895Z,62.18
2023-02-14T17:21:19.519Z,62.46
2023-02-14T17:23:46.276Z,62.37
2023-02-14T17:26:14.234Z,62.64
2023-02-14T17:28:40.948Z,62.98
2023-02-14T17:31:08.233Z,63.15
2023-02-14T17:33:35.673Z,63.57
2023-02-14T17:36:12.071Z,63.48
2023-02-14T17:38:39.715Z,63.69
2023-02-14T17:41:18.597Z,63.83
2023-02-14T17:43:46.237Z,64.36
2023-02-14T17:46:14.325Z,64.66
2023-02-14T17:48:42.139Z,64.92
2023-02-14T17:51:09.676Z,65.11
2023-02-14T17:53:36.338Z,65.49
2023-02-14T17:56:14.620Z,65.72
2023-02-14T17:58:41.416Z,65.99
2023-02-14T18:01:11.340Z,65.82
2023-02-14T18:03:39.343Z,66.27
2023-02-14T18:06:06.943Z,66.54
2023-02-14T18:08:35.338Z,67.16
2023-02-14T18:11:10.330Z,67.52
2023-02-14T18:13:37.713Z,67.33
2023-02-14T18:16:06.520Z,67.96
2023-02-14T18:18:33.157Z,67.56
2023-02-14T18:21:02.314Z,68.24
2023-02-14T18:23:30.737Z,68.56
2023-02-14T18:26:01.118Z,68.33
2023-02-14T18:28:28.132Z,68.62
2023-02-14T18:30:57.158Z,69.07
2023-02-14T18:33:25.425Z,69.16
2023-02-14T18:35:52.198Z,69.26
2023-02-14T18:38:19.727Z,69.61
2023-02-14T18:40:46.843Z,70.03
2023-02-14T18:43:13.741Z,70.59
2023-02-14T18:45:40.474Z,70.88
2023-02-14T18:48:09.122Z,70.62
2023-02-14T18:50:35.729Z,70.75
2023-02-14T18:53:02.365Z,70.73
2023-02-14T18:55:28.954Z,70.99
2023-02-14T18:57:55.516Z,71.43
2023-02-14T19:00:22.668Z,71.55
2023-02-14T19:02:49.229Z,71.13
2023-02-14T19:05:15.820Z,71.60
2023-02-14T19:07:42.424Z,71.88
2023-02-14T19:10:09.891Z,71.92
2023-02-14T19:12:36.441Z,71.84
2023-02-14T19:15:03.537Z,72.10
2023-02-14T19:17:30.269Z,72.44
2023-02-14T19:19:57.272Z,72.26
2023-02-14T19:22:23.959Z,72.66
2023-02-14T19:24:53.015Z,72.95
2023-02-14T19:27:21.579Z,72.62
2023-02-14T19:29:48.326Z,73.27
2023-02-14T19:32:15.035Z,72.87
2023-02-14T19:34:41.643Z,73.48
2023-02-14T19:37:08.273Z,73.39
2023-02-14T19:39:34.878Z,73.82
2023-02-14T19:42:01.476Z,73.71
2023-02-14T19:44:29.501Z,73.87
2023-02-14T19:46:56.717Z,74.08
2023-02-14T19:49:23.459Z,73.90
2023-02-14T19:51:53.922Z,74.32
2023-02-14T19:54:22.379Z,74.08
2023-02-14T19:56:49.007Z,73.87
2023-02-14T19:59:20.332Z,74.58
2023-02-14T20:01:55.430Z,74.64
2023-02-14T20:04:27.615Z,74.14
2023-02-14T20:06:54.983Z,74.38
2023-02-14T20:09:23.486Z,74.78
2023-02-14T20:11:55.689Z,74.76
2023-02-14T20:14:25.376Z,75.16
2023-02-14T20:16:54.802Z,75.10
2023-02-14T20:19:24.261Z,75.14
2023-02-14T20:21:51.180Z,75.32
2023-02-14T20:24:21.051Z,75.07
2023-02-14T20:26:48.721Z,75.46
2023-02-14T20:29:16.322Z,75.06
2023-02-14T20:31:46.362Z,75.50
2023-02-14T20:34:14.154Z,75.41
2023-02-14T20:36:42.024Z,75.73
2023-02-14T20:39:11.119Z,75.43
2023-02-14T20:41:37.905Z,76.00
2023-02-14T20:44:09.931Z,75.92
2023-02-14T20:46:36.767Z,75.71
2023-02-14T20:49:03.980Z,76.60
2023-02-14T20:51:30.531Z,76.76
2023-02-14T20:53:58.425Z,76.55
2023-02-14T20:56:25.001Z,77.13
2023-02-14T20:58:51.600Z,76.85
2023-02-14T21:01:21.538Z,77.20
2023-02-14T21:03:53.239Z,77.31
2023-02-14T21:06:24.795Z,77.38
2023-02-14T21:08:51.902Z,77.23
2023-02-14T21:11:20.374Z,77.10
2023-02-14T21:13:47.136Z,77.36
2023-02-14T21:16:19.613Z,77.81
2023-02-14T21:18:52.359Z,77.66
2023-02-14T21:21:20.211Z,77.71
2023-02-14T21:23:49.209Z,77.70
2023-02-14T21:26:16.286Z,77.99
2023-02-14T21:28:42.842Z,78.34
2023-02-14T21:31:11.889Z,78.33
2023-02-14T21:33:38.732Z,78.60
2023-02-14T21:36:16.462Z,78.76
2023-02-14T21:38:43.771Z,78.74
2023-02-14T21:41:12.558Z,79.18
2023-02-14T21:43:41.844Z,78.85
2023-02-14T21:50:14.476Z,78.95
2023-02-14T21:52:41.061Z,78.96
2023-02-14T21:55:08.451Z,79.36
2023-02-14T21:57:35.054Z,79.23
2023-02-14T22:00:01.636Z,79.52
2023-02-14T22:02:28.276Z,79.61
2023-02-14T22:04:54.841Z,79.40
2023-02-14T22:07:21.473Z,80.10
2023-02-14T22:09:48.069Z,80.04
2023-02-14T22:12:14.583Z,79.99
2023-02-14T22:14:41.132Z,80.29
2023-02-14T22:17:07.820Z,79.90
2023-02-14T22:19:36.425Z,80.20
2023-02-14T22:22:03.950Z,79.86
2023-02-14T22:24:30.612Z,80.08
2023-02-14T22:26:57.189Z,79.95
2023-02-14T22:29:23.760Z,79.85
2023-02-14T22:31:50.543Z,79.92
2023-02-14T22:34:19.880Z,80.32
2023-02-14T22:36:46.751Z,80.24
2023-02-14T22:39:15.497Z,80.69
2023-02-14T22:41:42.507Z,80.40
2023-02-14T22:44:09.299Z,80.43
2023-02-14T22:46:36.869Z,80.43
2023-02-14T22:49:03.651Z,80.86
2023-02-14T22:51:33.192Z,80.72
2023-02-14T22:54:08.789Z,80.77
2023-02-14T22:56:39.014Z,81.09
2023-02-14T22:59:17.239Z,80.78
2023-02-14T23:01:44.424Z,81.30
2023-02-14T23:04:11.589Z,81.00
2023-02-14T23:06:38.755Z,81.25
2023-02-14T23:09:07.239Z,81.39
2023-02-14T23:11:36.036Z,81.34
2023-02-14T23:14:21.766Z,81.44
2023-02-14T23:17:07.445Z,80.97
2023-02-14T23:19:53.886Z,81.13
2023-02-14T23:22:24.397Z,81.03
2023-02-14T23:24:52.856Z,81.46
2023-02-14T23:27:22.015Z,81.28
2023-02-14T23:29:49.327Z,81.33
2023-02-14T23:32:16.308Z,81.28
2023-02-14T23:34:44.551Z,81.33
2023-02-14T23:37:13.647Z,81.38
2023-02-14T23:39:40.878Z,81.50
2023-02-14T23:42:13.808Z,81.28
2023-02-14T23:44:42.122Z,81.43
2023-02-14T23:47:10.227Z,81.37
2023-02-14T23:49:39.110Z,81.64
2023-02-14T23:52:11.034Z,81.46
2023-02-14T23:54:38.037Z,81.64
2023-02-14T23:57:05.715Z,81.77
2023-02-14T23:59:32.266Z,81.49
